sensor_id;sensor_type;location;lat;lon;timestamp;P1;durP1;ratioP1;P2;durP2;ratioP2
74810;SDS011;63340;48.404;-4.506;2023-02-18T00:01:36;2.50;;;2.50;;
74810;SDS011;63340;48.404;-4.506;2023-02-18T00:04:02;2.00;;;2.00;;
74810;SDS011;63340;48.404;-4.506;2023-02-18T00:06:28;3.50;;;3.50;;
74810;SDS011;63340;48.404;-4.506;2023-02-18T00:08:55;2.00;;;2.00;;
74810;SDS011;63340;48.404;-4.506;2023-02-18T00:11:23;3.25;;;2.00;;
74810;SDS011;63340;48.404;-4.506;2023-02-18T00:13:52;5.00;;;4.00;;
74810;SDS011;63340;48.404;-4.506;2023-02-18T00:16:23;1.25;;;1.25;;
74810;SDS011;63340;48.404;-4.506;2023-02-18T00:18:53;2.25;;;2.00;;
74810;SDS011;63340;48.404;-4.506;2023-02-18T00:21:29;2.00;;;2.00;;
74810;SDS011;63340;48.404;-4.506;2023-02-18T00:23:55;2.00;;;1.00;;
74810;SDS011;63340;48.404;-4.506;2023-02-18T00:26:20;2.00;;;1.00;;
74810;SDS011;63340;48.404;-4.506;2023-02-18T00:28:46;2.00;;;2.00;;
74810;SDS011;63340;48.404;-4.506;2023-02-18T00:31:19;2.00;;;2.00;;
74810;SDS011;63340;48.404;-4.506;2023-02-18T00:33:47;1.00;;;1.00;;
74810;SDS011;63340;48.404;-4.506;2023-02-18T00:36:14;1.00;;;1.00;;
74810;SDS011;63340;48.404;-4.506;2023-02-18T00:38:46;2.50;;;2.25;;
74810;SDS011;63340;48.404;-4.506;2023-02-18T00:41:13;3.25;;;3.00;;
74810;SDS011;63340;48.404;-4.506;2023-02-18T00:43:39;1.00;;;1.00;;
74810;SDS011;63340;48.404;-4.506;2023-02-18T00:46:04;2.00;;;2.00;;
74810;SDS011;63340;48.404;-4.506;2023-02-18T00:48:30;2.00;;;2.00;;
74810;SDS011;63340;48.404;-4.506;2023-02-18T00:50:55;1.00;;;1.00;;
74810;SDS011;63340;48.404;-4.506;2023-02-18T00:53:21;2.00;;;2.00;;
74810;SDS011;63340;48.404;-4.506;2023-02-18T00:55:46;2.00;;;2.00;;
74810;SDS011;63340;48.404;-4.506;2023-02-18T00:58:12;2.00;;;2.00;;
74810;SDS011;63340;48.404;-4.506;2023-02-18T01:00:39;1.00;;;1.00;;
74810;SDS011;63340;48.404;-4.506;2023-02-18T01:03:05;1.75;;;1.75;;
74810;SDS011;63340;48.404;-4.506;2023-02-18T01:05:34;1.00;;;1.00;;
74810;SDS011;63340;48.404;-4.506;2023-02-18T01:08:00;2.00;;;2.00;;
74810;SDS011;63340;48.404;-4.506;2023-02-18T01:10:26;2.25;;;2.00;;
74810;SDS011;63340;48.404;-4.506;2023-02-18T01:12:52;3.50;;;2.00;;
74810;SDS011;63340;48.404;-4.506;2023-02-18T01:15:17;2.25;;;1.25;;
74810;SDS011;63340;48.404;-4.506;2023-02-18T01:17:43;3.00;;;2.00;;
74810;SDS011;63340;48.404;-4.506;2023-02-18T01:20:10;3.00;;;2.00;;
74810;SDS011;63340;48.404;-4.506;2023-02-18T01:22:37;2.00;;;2.00;;
74810;SDS011;63340;48.404;-4.506;2023-02-18T01:25:03;2.00;;;2.00;;
74810;SDS011;63340;48.404;-4.506;2023-02-18T01:27:28;2.00;;;2.00;;
74810;SDS011;63340;48.404;-4.506;2023-02-18T01:29:54;2.50;;;2.50;;
74810;SDS011;63340;48.404;-4.506;2023-02-18T01:32:19;4.00;;;2.50;;
74810;SDS011;63340;48.404;-4.506;2023-02-18T01:34:45;2.00;;;2.00;;
74810;SDS011;63340;48.404;-4.506;2023-02-18T01:37:11;3.75;;;3.00;;
74810;SDS011;63340;48.404;-4.506;2023-02-18T01:39:36;2.00;;;2.00;;
74810;SDS011;63340;48.404;-4.506;2023-02-18T01:42:02;1.00;;;1.00;;
74810;SDS011;63340;48.404;-4.506;2023-02-18T01:44:28;4.00;;;2.00;;
74810;SDS011;63340;48.404;-4.506;2023-02-18T01:46:54;2.00;;;2.00;;
74810;SDS011;63340;48.404;-4.506;2023-02-18T01:49:22;0.00;;;0.00;;
74810;SDS011;63340;48.404;-4.506;2023-02-18T01:51:52;2.00;;;1.25;;
74810;SDS011;63340;48.404;-4.506;2023-02-18T01:54:35;3.00;;;3.00;;
74810;SDS011;63340;48.404;-4.506;2023-02-18T01:57:05;1.00;;;0.00;;
74810;SDS011;63340;48.404;-4.506;2023-02-18T01:59:37;1.25;;;1.25;;
74810;SDS011;63340;48.404;-4.506;2023-02-18T02:02:06;3.00;;;0.75;;
74810;SDS011;63340;48.404;-4.506;2023-02-18T02:04:34;0.00;;;0.00;;
74810;SDS011;63340;48.404;-4.506;2023-02-18T02:07:00;1.00;;;1.00;;
74810;SDS011;63340;48.404;-4.506;2023-02-18T02:09:26;2.00;;;2.00;;
74810;SDS011;63340;48.404;-4.506;2023-02-18T02:20:12;2.00;;;2.00;;
74810;SDS011;63340;48.404;-4.506;2023-02-18T02:25:30;1.25;;;1.25;;
74810;SDS011;63340;48.404;-4.506;2023-02-18T02:46:40;0.00;;;0.00;;
74810;SDS011;63340;48.404;-4.506;2023-02-18T02:52:04;0.00;;;0.00;;
74810;SDS011;63340;48.404;-4.506;2023-02-18T02:54:34;1.00;;;0.00;;
74810;SDS011;63340;48.404;-4.506;2023-02-18T02:59:39;0.00;;;0.00;;
74810;SDS011;63340;48.404;-4.506;2023-02-18T03:05:04;0.50;;;0.50;;
74810;SDS011;63340;48.404;-4.506;2023-02-18T03:13:09;0.75;;;0.75;;
74810;SDS011;63340;48.404;-4.506;2023-02-18T03:16:13;1.00;;;1.00;;
74810;SDS011;63340;48.404;-4.506;2023-02-18T03:18:48;0.00;;;0.00;;
74810;SDS011;63340;48.404;-4.506;2023-02-18T03:21:25;0.50;;;0.00;;
74810;SDS011;63340;48.404;-4.506;2023-02-18T03:26:25;0.00;;;0.00;;
74810;SDS011;63340;48.404;-4.506;2023-02-18T03:28:54;0.75;;;0.00;;
74810;SDS011;63340;48.404;-4.506;2023-02-18T03:31:24;0.00;;;0.00;;
74810;SDS011;63340;48.404;-4.506;2023-02-18T03:33:58;0.00;;;0.00;;
74810;SDS011;63340;48.404;-4.506;2023-02-18T03:36:32;0.00;;;0.00;;
74810;SDS011;63340;48.404;-4.506;2023-02-18T03:39:00;0.00;;;0.00;;
74810;SDS011;63340;48.404;-4.506;2023-02-18T03:41:29;0.00;;;0.00;;
74810;SDS011;63340;48.404;-4.506;2023-02-18T03:43:58;0.00;;;0.00;;
74810;SDS011;63340;48.404;-4.506;2023-02-18T03:46:28;0.00;;;0.00;;
74810;SDS011;63340;48.404;-4.506;2023-02-18T03:48:55;0.00;;;0.00;;
74810;SDS011;63340;48.404;-4.506;2023-02-18T03:51:20;0.00;;;0.00;;
74810;SDS011;63340;48.404;-4.506;2023-02-18T03:53:46;0.00;;;0.00;;
74810;SDS011;63340;48.404;-4.506;2023-02-18T03:56:12;0.75;;;0.00;;
74810;SDS011;63340;48.404;-4.506;2023-02-18T03:58:37;0.00;;;0.00;;
74810;SDS011;63340;48.404;-4.506;2023-02-18T04:01:04;0.00;;;0.00;;
74810;SDS011;63340;48.404;-4.506;2023-02-18T04:03:29;0.00;;;0.00;;
74810;SDS011;63340;48.404;-4.506;2023-02-18T04:05:55;0.00;;;0.00;;
74810;SDS011;63340;48.404;-4.506;2023-02-18T04:08:21;0.00;;;0.00;;
74810;SDS011;63340;48.404;-4.506;2023-02-18T04:10:46;0.00;;;0.00;;
74810;SDS011;63340;48.404;-4.506;2023-02-18T04:13:11;0.00;;;0.00;;
74810;SDS011;63340;48.404;-4.506;2023-02-18T04:15:37;0.00;;;0.00;;
74810;SDS011;63340;48.404;-4.506;2023-02-18T04:18:02;0.00;;;0.00;;
74810;SDS011;63340;48.404;-4.506;2023-02-18T04:20:28;0.00;;;0.00;;
74810;SDS011;63340;48.404;-4.506;2023-02-18T04:22:53;0.00;;;0.00;;
74810;SDS011;63340;48.404;-4.506;2023-02-18T04:25:19;0.00;;;0.00;;
74810;SDS011;63340;48.404;-4.506;2023-02-18T04:27:44;0.00;;;0.00;;
74810;SDS011;63340;48.404;-4.506;2023-02-18T04:30:10;1.00;;;0.00;;
74810;SDS011;63340;48.404;-4.506;2023-02-18T04:32:36;3.00;;;0.00;;
74810;SDS011;63340;48.404;-4.506;2023-02-18T04:35:01;0.75;;;0.00;;
74810;SDS011;63340;48.404;-4.506;2023-02-18T04:37:28;0.00;;;0.00;;
74810;SDS011;63340;48.404;-4.506;2023-02-18T04:39:53;1.00;;;0.00;;
74810;SDS011;63340;48.404;-4.506;2023-02-18T04:42:18;0.25;;;0.25;;
74810;SDS011;63340;48.404;-4.506;2023-02-18T04:44:44;0.00;;;0.00;;
74810;SDS011;63340;48.404;-4.506;2023-02-18T04:47:09;0.00;;;0.00;;
74810;SDS011;63340;48.404;-4.506;2023-02-18T04:49:34;0.00;;;0.00;;
74810;SDS011;63340;48.404;-4.506;2023-02-18T04:52:00;0.00;;;0.00;;
74810;SDS011;63340;48.404;-4.506;2023-02-18T04:54:25;0.00;;;0.00;;
74810;SDS011;63340;48.404;-4.506;2023-02-18T04:56:51;1.50;;;0.00;;
74810;SDS011;63340;48.404;-4.506;2023-02-18T04:59:16;0.50;;;0.50;;
74810;SDS011;63340;48.404;-4.506;2023-02-18T05:01:42;0.00;;;0.00;;
74810;SDS011;63340;48.404;-4.506;2023-02-18T05:04:07;0.00;;;0.00;;
74810;SDS011;63340;48.404;-4.506;2023-02-18T05:06:32;0.00;;;0.00;;
74810;SDS011;63340;48.404;-4.506;2023-02-18T05:08:58;0.00;;;0.00;;
74810;SDS011;63340;48.404;-4.506;2023-02-18T05:11:23;0.00;;;0.00;;
74810;SDS011;63340;48.404;-4.506;2023-02-18T05:13:49;3.00;;;0.00;;
74810;SDS011;63340;48.404;-4.506;2023-02-18T05:16:14;1.00;;;0.00;;
74810;SDS011;63340;48.404;-4.506;2023-02-18T05:18:40;0.00;;;0.00;;
74810;SDS011;63340;48.404;-4.506;2023-02-18T05:21:05;1.50;;;0.00;;
74810;SDS011;63340;48.404;-4.506;2023-02-18T05:23:31;0.50;;;0.00;;
74810;SDS011;63340;48.404;-4.506;2023-02-18T05:25:56;0.00;;;0.00;;
74810;SDS011;63340;48.404;-4.506;2023-02-18T05:28:21;1.25;;;0.00;;
74810;SDS011;63340;48.404;-4.506;2023-02-18T05:30:47;1.00;;;1.00;;
74810;SDS011;63340;48.404;-4.506;2023-02-18T05:33:12;0.00;;;0.00;;
74810;SDS011;63340;48.404;-4.506;2023-02-18T05:35:38;0.00;;;0.00;;
74810;SDS011;63340;48.404;-4.506;2023-02-18T05:38:03;2.00;;;0.00;;
74810;SDS011;63340;48.404;-4.506;2023-02-18T05:40:29;0.00;;;0.00;;
74810;SDS011;63340;48.404;-4.506;2023-02-18T05:42:55;1.00;;;1.00;;
74810;SDS011;63340;48.404;-4.506;2023-02-18T05:45:20;1.50;;;1.00;;
74810;SDS011;63340;48.404;-4.506;2023-02-18T05:47:45;2.00;;;0.00;;
74810;SDS011;63340;48.404;-4.506;2023-02-18T05:50:11;0.00;;;0.00;;
74810;SDS011;63340;48.404;-4.506;2023-02-18T05:52:36;0.00;;;0.00;;
74810;SDS011;63340;48.404;-4.506;2023-02-18T05:55:02;1.00;;;0.00;;
74810;SDS011;63340;48.404;-4.506;2023-02-18T05:57:27;0.00;;;0.00;;
74810;SDS011;63340;48.404;-4.506;2023-02-18T05:59:53;0.00;;;0.00;;
74810;SDS011;63340;48.404;-4.506;2023-02-18T06:02:18;0.00;;;0.00;;
74810;SDS011;63340;48.404;-4.506;2023-02-18T06:04:44;1.00;;;1.00;;
74810;SDS011;63340;48.404;-4.506;2023-02-18T06:07:09;2.50;;;2.50;;
74810;SDS011;63340;48.404;-4.506;2023-02-18T06:09:34;1.00;;;0.75;;
74810;SDS011;63340;48.404;-4.506;2023-02-18T06:12:00;0.00;;;0.00;;
74810;SDS011;63340;48.404;-4.506;2023-02-18T06:14:25;1.25;;;1.00;;
74810;SDS011;63340;48.404;-4.506;2023-02-18T06:16:51;1.00;;;1.00;;
74810;SDS011;63340;48.404;-4.506;2023-02-18T06:19:16;1.50;;;1.00;;
74810;SDS011;63340;48.404;-4.506;2023-02-18T06:21:42;1.00;;;1.00;;
74810;SDS011;63340;48.404;-4.506;2023-02-18T06:24:07;0.00;;;0.00;;
74810;SDS011;63340;48.404;-4.506;2023-02-18T06:26:33;2.25;;;1.00;;
74810;SDS011;63340;48.404;-4.506;2023-02-18T06:28:58;1.00;;;1.00;;
74810;SDS011;63340;48.404;-4.506;2023-02-18T06:31:24;1.00;;;1.00;;
74810;SDS011;63340;48.404;-4.506;2023-02-18T06:33:49;0.75;;;0.00;;
74810;SDS011;63340;48.404;-4.506;2023-02-18T06:36:14;0.00;;;0.00;;
74810;SDS011;63340;48.404;-4.506;2023-02-18T06:38:41;3.00;;;3.00;;
74810;SDS011;63340;48.404;-4.506;2023-02-18T06:41:08;1.00;;;1.00;;
74810;SDS011;63340;48.404;-4.506;2023-02-18T06:43:34;1.00;;;0.00;;
74810;SDS011;63340;48.404;-4.506;2023-02-18T06:46:00;1.00;;;1.00;;
74810;SDS011;63340;48.404;-4.506;2023-02-18T06:48:25;0.00;;;0.00;;
74810;SDS011;63340;48.404;-4.506;2023-02-18T06:50:51;0.25;;;0.00;;
74810;SDS011;63340;48.404;-4.506;2023-02-18T06:53:16;1.75;;;1.00;;
74810;SDS011;63340;48.404;-4.506;2023-02-18T06:55:42;1.00;;;0.25;;
74810;SDS011;63340;48.404;-4.506;2023-02-18T06:58:08;2.00;;;0.00;;
74810;SDS011;63340;48.404;-4.506;2023-02-18T07:00:35;0.50;;;0.00;;
74810;SDS011;63340;48.404;-4.506;2023-02-18T07:03:01;0.00;;;0.00;;
74810;SDS011;63340;48.404;-4.506;2023-02-18T07:05:26;0.00;;;0.00;;
74810;SDS011;63340;48.404;-4.506;2023-02-18T07:07:52;0.00;;;0.00;;
74810;SDS011;63340;48.404;-4.506;2023-02-18T07:10:18;1.00;;;0.00;;
74810;SDS011;63340;48.404;-4.506;2023-02-18T07:12:43;0.00;;;0.00;;
74810;SDS011;63340;48.404;-4.506;2023-02-18T07:15:09;0.00;;;0.00;;
74810;SDS011;63340;48.404;-4.506;2023-02-18T07:17:34;0.50;;;0.00;;
74810;SDS011;63340;48.404;-4.506;2023-02-18T07:19:59;0.00;;;0.00;;
74810;SDS011;63340;48.404;-4.506;2023-02-18T07:22:25;0.00;;;0.00;;
74810;SDS011;63340;48.404;-4.506;2023-02-18T07:24:51;2.50;;;0.00;;
74810;SDS011;63340;48.404;-4.506;2023-02-18T07:27:18;1.50;;;0.00;;
74810;SDS011;63340;48.404;-4.506;2023-02-18T07:29:44;0.00;;;0.00;;
74810;SDS011;63340;48.404;-4.506;2023-02-18T07:32:13;0.00;;;0.00;;
74810;SDS011;63340;48.404;-4.506;2023-02-18T07:34:40;0.00;;;0.00;;
74810;SDS011;63340;48.404;-4.506;2023-02-18T07:37:05;0.00;;;0.00;;
74810;SDS011;63340;48.404;-4.506;2023-02-18T07:39:38;1.25;;;1.00;;
74810;SDS011;63340;48.404;-4.506;2023-02-18T07:42:05;0.75;;;0.50;;
74810;SDS011;63340;48.404;-4.506;2023-02-18T07:44:30;2.00;;;0.00;;
74810;SDS011;63340;48.404;-4.506;2023-02-18T07:46:55;0.00;;;0.00;;
74810;SDS011;63340;48.404;-4.506;2023-02-18T07:49:21;0.00;;;0.00;;
74810;SDS011;63340;48.404;-4.506;2023-02-18T07:51:47;0.00;;;0.00;;
74810;SDS011;63340;48.404;-4.506;2023-02-18T07:54:13;0.00;;;0.00;;
74810;SDS011;63340;48.404;-4.506;2023-02-18T07:56:38;1.00;;;0.00;;
74810;SDS011;63340;48.404;-4.506;2023-02-18T07:59:04;0.00;;;0.00;;
74810;SDS011;63340;48.404;-4.506;2023-02-18T08:01:30;1.00;;;0.00;;
74810;SDS011;63340;48.404;-4.506;2023-02-18T08:03:55;0.00;;;0.00;;
74810;SDS011;63340;48.404;-4.506;2023-02-18T08:06:21;0.00;;;0.00;;
74810;SDS011;63340;48.404;-4.506;2023-02-18T08:08:52;0.75;;;0.00;;
74810;SDS011;63340;48.404;-4.506;2023-02-18T08:11:17;0.00;;;0.00;;
74810;SDS011;63340;48.404;-4.506;2023-02-18T08:13:42;0.00;;;0.00;;
74810;SDS011;63340;48.404;-4.506;2023-02-18T08:16:08;1.00;;;0.00;;
74810;SDS011;63340;48.404;-4.506;2023-02-18T08:18:34;0.00;;;0.00;;
74810;SDS011;63340;48.404;-4.506;2023-02-18T08:20:59;0.00;;;0.00;;
74810;SDS011;63340;48.404;-4.506;2023-02-18T08:23:25;0.00;;;0.00;;
74810;SDS011;63340;48.404;-4.506;2023-02-18T08:25:51;0.00;;;0.00;;
74810;SDS011;63340;48.404;-4.506;2023-02-18T08:28:18;0.00;;;0.00;;
74810;SDS011;63340;48.404;-4.506;2023-02-18T08:30:45;0.00;;;0.00;;
74810;SDS011;63340;48.404;-4.506;2023-02-18T08:33:11;0.00;;;0.00;;
74810;SDS011;63340;48.404;-4.506;2023-02-18T08:35:37;0.00;;;0.00;;
74810;SDS011;63340;48.404;-4.506;2023-02-18T08:38:03;0.00;;;0.00;;
74810;SDS011;63340;48.404;-4.506;2023-02-18T08:40:29;0.00;;;0.00;;
74810;SDS011;63340;48.404;-4.506;2023-02-18T08:42:54;0.00;;;0.00;;
74810;SDS011;63340;48.404;-4.506;2023-02-18T08:45:20;0.00;;;0.00;;
74810;SDS011;63340;48.404;-4.506;2023-02-18T08:47:45;0.00;;;0.00;;
74810;SDS011;63340;48.404;-4.506;2023-02-18T08:50:10;0.00;;;0.00;;
74810;SDS011;63340;48.404;-4.506;2023-02-18T08:52:36;0.00;;;0.00;;
74810;SDS011;63340;48.404;-4.506;2023-02-18T08:55:02;0.00;;;0.00;;
74810;SDS011;63340;48.404;-4.506;2023-02-18T08:57:28;0.00;;;0.00;;
74810;SDS011;63340;48.404;-4.506;2023-02-18T08:59:54;0.00;;;0.00;;
74810;SDS011;63340;48.404;-4.506;2023-02-18T09:02:19;0.50;;;0.00;;
74810;SDS011;63340;48.404;-4.506;2023-02-18T09:04:44;0.00;;;0.00;;
74810;SDS011;63340;48.404;-4.506;2023-02-18T09:07:10;0.00;;;0.00;;
74810;SDS011;63340;48.404;-4.506;2023-02-18T09:09:35;1.00;;;0.00;;
74810;SDS011;63340;48.404;-4.506;2023-02-18T09:12:01;0.00;;;0.00;;
74810;SDS011;63340;48.404;-4.506;2023-02-18T09:14:26;0.00;;;0.00;;
74810;SDS011;63340;48.404;-4.506;2023-02-18T09:16:52;0.00;;;0.00;;
74810;SDS011;63340;48.404;-4.506;2023-02-18T09:19:17;0.50;;;0.00;;
74810;SDS011;63340;48.404;-4.506;2023-02-18T09:21:43;0.00;;;0.00;;
74810;SDS011;63340;48.404;-4.506;2023-02-18T09:24:08;0.00;;;0.00;;
74810;SDS011;63340;48.404;-4.506;2023-02-18T09:26:34;0.00;;;0.00;;
74810;SDS011;63340;48.404;-4.506;2023-02-18T09:28:59;0.75;;;0.00;;
74810;SDS011;63340;48.404;-4.506;2023-02-18T09:31:25;0.00;;;0.00;;
74810;SDS011;63340;48.404;-4.506;2023-02-18T09:33:54;0.75;;;0.25;;
74810;SDS011;63340;48.404;-4.506;2023-02-18T09:36:21;0.00;;;0.00;;
74810;SDS011;63340;48.404;-4.506;2023-02-18T09:38:47;0.25;;;0.25;;
74810;SDS011;63340;48.404;-4.506;2023-02-18T09:41:15;0.00;;;0.00;;
74810;SDS011;63340;48.404;-4.506;2023-02-18T09:43:52;0.00;;;0.00;;
74810;SDS011;63340;48.404;-4.506;2023-02-18T09:46:29;0.75;;;0.00;;
74810;SDS011;63340;48.404;-4.506;2023-02-18T09:49:00;0.00;;;0.00;;
74810;SDS011;63340;48.404;-4.506;2023-02-18T09:51:29;0.00;;;0.00;;
74810;SDS011;63340;48.404;-4.506;2023-02-18T09:53:55;0.00;;;0.00;;
74810;SDS011;63340;48.404;-4.506;2023-02-18T09:56:27;0.00;;;0.00;;
74810;SDS011;63340;48.404;-4.506;2023-02-18T09:58:56;0.00;;;0.00;;
74810;SDS011;63340;48.404;-4.506;2023-02-18T10:01:27;1.00;;;0.00;;
74810;SDS011;63340;48.404;-4.506;2023-02-18T10:04:03;0.00;;;0.00;;
74810;SDS011;63340;48.404;-4.506;2023-02-18T10:06:36;0.00;;;0.00;;
74810;SDS011;63340;48.404;-4.506;2023-02-18T10:09:04;0.00;;;0.00;;
74810;SDS011;63340;48.404;-4.506;2023-02-18T10:11:41;1.00;;;0.00;;
74810;SDS011;63340;48.404;-4.506;2023-02-18T10:14:08;0.00;;;0.00;;
74810;SDS011;63340;48.404;-4.506;2023-02-18T10:16:36;0.75;;;0.00;;
74810;SDS011;63340;48.404;-4.506;2023-02-18T10:21:46;0.00;;;0.00;;
74810;SDS011;63340;48.404;-4.506;2023-02-18T10:26:52;0.00;;;0.00;;
74810;SDS011;63340;48.404;-4.506;2023-02-18T10:29:19;0.00;;;0.00;;
74810;SDS011;63340;48.404;-4.506;2023-02-18T10:31:48;1.00;;;1.00;;
74810;SDS011;63340;48.404;-4.506;2023-02-18T10:37:46;0.00;;;0.00;;
74810;SDS011;63340;48.404;-4.506;2023-02-18T10:50:37;0.00;;;0.00;;
74810;SDS011;63340;48.404;-4.506;2023-02-18T10:53:28;0.75;;;0.00;;
74810;SDS011;63340;48.404;-4.506;2023-02-18T10:55:58;0.00;;;0.00;;
74810;SDS011;63340;48.404;-4.506;2023-02-18T10:58:26;0.00;;;0.00;;
74810;SDS011;63340;48.404;-4.506;2023-02-18T11:01:05;0.00;;;0.00;;
74810;SDS011;63340;48.404;-4.506;2023-02-18T11:03:44;0.00;;;0.00;;
74810;SDS011;63340;48.404;-4.506;2023-02-18T11:06:32;0.75;;;0.00;;
74810;SDS011;63340;48.404;-4.506;2023-02-18T11:09:04;1.00;;;0.75;;
74810;SDS011;63340;48.404;-4.506;2023-02-18T11:11:31;0.00;;;0.00;;
74810;SDS011;63340;48.404;-4.506;2023-02-18T11:14:01;0.00;;;0.00;;
74810;SDS011;63340;48.404;-4.506;2023-02-18T11:16:39;0.00;;;0.00;;
74810;SDS011;63340;48.404;-4.506;2023-02-18T11:22:06;0.00;;;0.00;;
74810;SDS011;63340;48.404;-4.506;2023-02-18T11:24:41;0.00;;;0.00;;
74810;SDS011;63340;48.404;-4.506;2023-02-18T11:27:14;0.00;;;0.00;;
74810;SDS011;63340;48.404;-4.506;2023-02-18T11:29:50;1.00;;;1.00;;
74810;SDS011;63340;48.404;-4.506;2023-02-18T11:32:17;0.00;;;0.00;;
74810;SDS011;63340;48.404;-4.506;2023-02-18T11:34:43;0.00;;;0.00;;
74810;SDS011;63340;48.404;-4.506;2023-02-18T11:37:11;0.00;;;0.00;;
74810;SDS011;63340;48.404;-4.506;2023-02-18T11:39:42;0.00;;;0.00;;
74810;SDS011;63340;48.404;-4.506;2023-02-18T11:42:11;0.00;;;0.00;;
74810;SDS011;63340;48.404;-4.506;2023-02-18T11:44:47;0.75;;;0.75;;
74810;SDS011;63340;48.404;-4.506;2023-02-18T11:47:23;0.75;;;0.00;;
74810;SDS011;63340;48.404;-4.506;2023-02-18T11:52:35;0.00;;;0.00;;
74810;SDS011;63340;48.404;-4.506;2023-02-18T11:55:13;0.00;;;0.00;;
74810;SDS011;63340;48.404;-4.506;2023-02-18T11:57:40;0.25;;;0.00;;
74810;SDS011;63340;48.404;-4.506;2023-02-18T12:00:19;0.00;;;0.00;;
74810;SDS011;63340;48.404;-4.506;2023-02-18T12:02:45;0.00;;;0.00;;
74810;SDS011;63340;48.404;-4.506;2023-02-18T12:10:42;0.00;;;0.00;;
74810;SDS011;63340;48.404;-4.506;2023-02-18T12:13:47;0.00;;;0.00;;
74810;SDS011;63340;48.404;-4.506;2023-02-18T12:38:11;0.00;;;0.00;;
74810;SDS011;63340;48.404;-4.506;2023-02-18T12:41:06;1.00;;;1.00;;
74810;SDS011;63340;48.404;-4.506;2023-02-18T12:59:46;0.25;;;0.25;;
74810;SDS011;63340;48.404;-4.506;2023-02-18T13:04:53;0.75;;;0.00;;
74810;SDS011;63340;48.404;-4.506;2023-02-18T13:13:08;0.25;;;0.25;;
74810;SDS011;63340;48.404;-4.506;2023-02-18T13:18:17;0.00;;;0.00;;
74810;SDS011;63340;48.404;-4.506;2023-02-18T13:21:06;2.00;;;0.00;;
74810;SDS011;63340;48.404;-4.506;2023-02-18T13:23:34;0.00;;;0.00;;
74810;SDS011;63340;48.404;-4.506;2023-02-18T13:26:04;1.00;;;0.00;;
74810;SDS011;63340;48.404;-4.506;2023-02-18T13:28:42;0.00;;;0.00;;
74810;SDS011;63340;48.404;-4.506;2023-02-18T13:31:16;0.00;;;0.00;;
74810;SDS011;63340;48.404;-4.506;2023-02-18T13:33:57;0.00;;;0.00;;
74810;SDS011;63340;48.404;-4.506;2023-02-18T13:39:11;0.00;;;0.00;;
74810;SDS011;63340;48.404;-4.506;2023-02-18T13:41:44;2.00;;;0.00;;
74810;SDS011;63340;48.404;-4.506;2023-02-18T13:46:46;0.00;;;0.00;;
74810;SDS011;63340;48.404;-4.506;2023-02-18T13:49:18;0.00;;;0.00;;
74810;SDS011;63340;48.404;-4.506;2023-02-18T13:51:47;1.50;;;1.00;;
74810;SDS011;63340;48.404;-4.506;2023-02-18T13:57:18;0.50;;;0.50;;
74810;SDS011;63340;48.404;-4.506;2023-02-18T13:59:46;1.00;;;0.00;;
74810;SDS011;63340;48.404;-4.506;2023-02-18T14:36:32;0.50;;;0.00;;
74810;SDS011;63340;48.404;-4.506;2023-02-18T14:48:04;0.00;;;0.00;;
74810;SDS011;63340;48.404;-4.506;2023-02-18T14:50:34;0.00;;;0.00;;
74810;SDS011;63340;48.404;-4.506;2023-02-18T14:53:03;0.00;;;0.00;;
74810;SDS011;63340;48.404;-4.506;2023-02-18T14:55:33;0.00;;;0.00;;
74810;SDS011;63340;48.404;-4.506;2023-02-18T15:00:32;0.00;;;0.00;;
74810;SDS011;63340;48.404;-4.506;2023-02-18T15:03:00;0.00;;;0.00;;
74810;SDS011;63340;48.404;-4.506;2023-02-18T15:05:27;0.00;;;0.00;;
74810;SDS011;63340;48.404;-4.506;2023-02-18T15:07:55;0.00;;;0.00;;
74810;SDS011;63340;48.404;-4.506;2023-02-18T15:10:24;0.00;;;0.00;;
74810;SDS011;63340;48.404;-4.506;2023-02-18T15:12:59;0.00;;;0.00;;
74810;SDS011;63340;48.404;-4.506;2023-02-18T15:15:26;0.00;;;0.00;;
74810;SDS011;63340;48.404;-4.506;2023-02-18T15:17:52;0.00;;;0.00;;
74810;SDS011;63340;48.404;-4.506;2023-02-18T15:20:18;0.50;;;0.00;;
74810;SDS011;63340;48.404;-4.506;2023-02-18T15:22:43;0.00;;;0.00;;
74810;SDS011;63340;48.404;-4.506;2023-02-18T15:25:10;0.00;;;0.00;;
74810;SDS011;63340;48.404;-4.506;2023-02-18T15:27:38;0.00;;;0.00;;
74810;SDS011;63340;48.404;-4.506;2023-02-18T15:30:23;0.25;;;0.00;;
74810;SDS011;63340;48.404;-4.506;2023-02-18T15:32:56;0.00;;;0.00;;
74810;SDS011;63340;48.404;-4.506;2023-02-18T15:35:26;0.00;;;0.00;;
74810;SDS011;63340;48.404;-4.506;2023-02-18T15:37:55;0.00;;;0.00;;
74810;SDS011;63340;48.404;-4.506;2023-02-18T15:40:23;0.00;;;0.00;;
74810;SDS011;63340;48.404;-4.506;2023-02-18T15:42:52;0.00;;;0.00;;
74810;SDS011;63340;48.404;-4.506;2023-02-18T15:45:23;0.00;;;0.00;;
74810;SDS011;63340;48.404;-4.506;2023-02-18T15:47:54;0.00;;;0.00;;
74810;SDS011;63340;48.404;-4.506;2023-02-18T15:50:22;0.00;;;0.00;;
74810;SDS011;63340;48.404;-4.506;2023-02-18T15:52:50;0.25;;;0.25;;
74810;SDS011;63340;48.404;-4.506;2023-02-18T15:58:02;0.00;;;0.00;;
74810;SDS011;63340;48.404;-4.506;2023-02-18T16:00:32;0.00;;;0.00;;
74810;SDS011;63340;48.404;-4.506;2023-02-18T16:03:14;0.25;;;0.00;;
74810;SDS011;63340;48.404;-4.506;2023-02-18T16:05:44;1.00;;;1.00;;
74810;SDS011;63340;48.404;-4.506;2023-02-18T16:13:26;1.00;;;1.00;;
74810;SDS011;63340;48.404;-4.506;2023-02-18T16:15:54;1.00;;;1.00;;
74810;SDS011;63340;48.404;-4.506;2023-02-18T16:18:34;1.00;;;1.00;;
74810;SDS011;63340;48.404;-4.506;2023-02-18T16:21:04;1.00;;;1.00;;
74810;SDS011;63340;48.404;-4.506;2023-02-18T16:23:41;1.00;;;1.00;;
74810;SDS011;63340;48.404;-4.506;2023-02-18T16:26:09;1.25;;;1.00;;
74810;SDS011;63340;48.404;-4.506;2023-02-18T16:28:59;0.25;;;0.25;;
74810;SDS011;63340;48.404;-4.506;2023-02-18T16:31:28;3.00;;;2.50;;
74810;SDS011;63340;48.404;-4.506;2023-02-18T16:33:54;0.25;;;0.25;;
74810;SDS011;63340;48.404;-4.506;2023-02-18T16:36:19;1.00;;;1.00;;
74810;SDS011;63340;48.404;-4.506;2023-02-18T16:38:47;1.00;;;1.00;;
74810;SDS011;63340;48.404;-4.506;2023-02-18T16:41:13;3.00;;;2.00;;
74810;SDS011;63340;48.404;-4.506;2023-02-18T16:43:39;1.25;;;1.00;;
74810;SDS011;63340;48.404;-4.506;2023-02-18T16:46:09;1.00;;;1.00;;
74810;SDS011;63340;48.404;-4.506;2023-02-18T16:48:40;2.00;;;2.00;;
74810;SDS011;63340;48.404;-4.506;2023-02-18T16:53:45;1.00;;;1.00;;
74810;SDS011;63340;48.404;-4.506;2023-02-18T16:56:14;1.00;;;1.00;;
74810;SDS011;63340;48.404;-4.506;2023-02-18T16:58:41;2.00;;;1.75;;
74810;SDS011;63340;48.404;-4.506;2023-02-18T17:01:09;1.75;;;1.75;;
74810;SDS011;63340;48.404;-4.506;2023-02-18T17:03:48;1.00;;;1.00;;
74810;SDS011;63340;48.404;-4.506;2023-02-18T17:06:13;2.50;;;1.50;;
74810;SDS011;63340;48.404;-4.506;2023-02-18T17:08:39;2.00;;;2.00;;
74810;SDS011;63340;48.404;-4.506;2023-02-18T17:11:05;3.50;;;2.00;;
74810;SDS011;63340;48.404;-4.506;2023-02-18T17:13:30;1.25;;;1.25;;
74810;SDS011;63340;48.404;-4.506;2023-02-18T17:15:56;2.25;;;2.00;;
74810;SDS011;63340;48.404;-4.506;2023-02-18T17:18:22;2.50;;;1.25;;
74810;SDS011;63340;48.404;-4.506;2023-02-18T17:20:49;2.00;;;2.00;;
74810;SDS011;63340;48.404;-4.506;2023-02-18T17:23:17;2.50;;;1.75;;
74810;SDS011;63340;48.404;-4.506;2023-02-18T17:25:45;0.25;;;0.00;;
74810;SDS011;63340;48.404;-4.506;2023-02-18T17:28:12;2.00;;;1.00;;
74810;SDS011;63340;48.404;-4.506;2023-02-18T17:30:40;2.00;;;1.50;;
74810;SDS011;63340;48.404;-4.506;2023-02-18T17:33:07;1.50;;;1.50;;
74810;SDS011;63340;48.404;-4.506;2023-02-18T17:35:39;1.25;;;1.25;;
74810;SDS011;63340;48.404;-4.506;2023-02-18T17:38:08;1.75;;;1.75;;
74810;SDS011;63340;48.404;-4.506;2023-02-18T17:40:35;3.00;;;3.00;;
74810;SDS011;63340;48.404;-4.506;2023-02-18T17:43:01;2.00;;;2.00;;
74810;SDS011;63340;48.404;-4.506;2023-02-18T17:45:27;1.75;;;1.75;;
74810;SDS011;63340;48.404;-4.506;2023-02-18T17:47:58;4.00;;;3.00;;
74810;SDS011;63340;48.404;-4.506;2023-02-18T17:50:26;1.25;;;1.25;;